Time;durP1;ratioP1;P1;durP2;ratioP2;P2;SDS_P1;SDS_P2;PMS_P1;PMS_P2;Temp;Humidity;BMP_temperature;BMP_pressure;BME280_temperature;BME280_humidity;BME280_pressure;Samples;Min_cycle;Max_cycle;Signal;HPM_P1;HPM_P2
2022/04/01 03:55:46;;;;;;;15.07;12.50;;;;;;;3.11;84.31;98589.34;6218174;22;21090;-90
2022/04/01 06:09:25;;;;;;;17.30;13.63;;;;;;;3.17;82.55;98788.66;6236904;22;20022;-92
2022/04/01 06:12:56;;;;;;;16.15;12.48;;;;;;;3.06;83.49;98790.03;6233777;22;20039;-93
2022/04/01 06:16:30;;;;;;;17.15;13.75;;;;;;;3.08;83.04;98807.38;6239460;22;20039;-91
2022/04/01 06:19:55;;;;;;;16.52;12.45;;;;;;;2.59;83.33;98721.44;6237633;22;20012;-93
2022/04/01 06:22:49;;;;;;;14.55;12.52;;;;;;;2.62;82.34;98737.84;6234896;22;20025;-94
2022/04/01 06:26:02;;;;;;;19.35;12.52;;;;;;;2.56;82.59;98743.31;6236268;23;20020;-92
2022/04/01 06:29:26;;;;;;;17.10;12.38;;;;;;;2.93;82.54;98817.63;6213621;23;20104;-93
2022/04/01 06:32:56;;;;;;;17.17;12.70;;;;;;;2.94;82.84;98824.56;6236857;22;20040;-96
2022/04/01 06:36:06;;;;;;;16.25;12.25;;;;;;;2.97;82.71;98822.66;6229487;23;20023;-95
2022/04/01 06:43:15;;;;;;;16.45;12.35;;;;;;;3.02;81.39;98833.75;6231540;23;20024;-95
2022/04/01 06:49:11;;;;;;;;;;;;;;;;;;;;;
2022/04/01 06:53:10;;;;;;;16.67;10.82;;;;;;;3.04;80.35;98831.09;6324047;22;20026;-96
2022/04/01 06:56:21;;;;;;;15.23;10.85;;;;;;;2.83;80.56;98832.00;6309784;22;20380;-94
2022/04/01 06:59:09;;;;;;;14.98;10.65;;;;;;;2.73;80.48;98819.28;6293761;22;20042;-94
2022/04/01 07:01:58;;;;;;;13.80;10.32;;;;;;;2.49;80.34;98782.84;6293589;22;20019;-95
2022/04/01 07:04:58;;;;;;;;;;;;;;;;;;;;;
2022/04/01 07:08:39;;;;;;;;;;;;;;;;;;;;;
2022/04/01 07:12:04;;;;;;;13.00;10.38;;;;;;;2.59;79.45;98818.13;6169971;23;20013;-92
2022/04/01 07:15:00;;;;;;;;;;;;;;;;;;;;;
2022/04/01 07:18:10;;;;;;;16.05;10.88;;;;;;;2.78;80.78;98853.94;6174248;23;20069;-91
2022/04/01 07:28:11;;;;;;;13.52;10.02;;;;;;;2.70;78.52;98829.00;6147220;23;20026;-94
2022/04/01 07:37:12;;;;;;;12.82;9.40;;;;;;;2.94;78.29;98864.63;6283810;22;20035;-95
2022/04/01 07:44:02;;;;;;;12.52;9.45;;;;;;;2.56;78.16;98810.41;6299739;22;20038;-94
2022/04/01 07:47:09;;;;;;;;;;;;;;;;;;;;;
2022/04/01 07:50:42;;;;;;;13.23;9.52;;;;;;;2.83;77.59;98849.34;6310902;22;20043;-92
2022/04/01 07:57:32;;;;;;;;;;;;;;;;;;;;;
2022/04/01 08:01:09;;;;;;;11.70;8.70;;;;;;;3.24;76.59;98906.13;6298625;22;20063;-93
2022/04/01 08:09:00;;;;;;;;;;;;;;;;;;;;;
2022/04/01 10:31:45;;;;;;;10.77;8.93;;;;;;;2.39;83.09;99002.63;6308533;22;20075;-93
2022/04/01 10:35:16;;;;;;;11.02;8.68;;;;;;;2.09;83.03;98977.59;6324943;22;20022;-94
2022/04/01 10:38:16;;;;;;;10.60;8.48;;;;;;;2.61;84.54;99054.13;6281900;22;20023;-93
2022/04/01 10:41:40;;;;;;;10.50;8.48;;;;;;;2.65;83.55;99056.56;6298232;22;20030;-94
2022/04/01 10:45:08;;;;;;;9.77;8.10;;;;;;;2.17;84.47;98991.25;6271454;22;20345;-95
2022/04/01 17:48:10;;;;;;;20.17;14.27;;;;;;;-0.39;100.00;99311.13;6322730;22;20091;-90
2022/04/01 17:50:54;;;;;;;22.13;14.20;;;;;;;0.14;100.00;99395.03;6298471;22;20033;-91
2022/04/01 17:54:35;;;;;;;17.20;13.80;;;;;;;0.10;100.00;99405.53;6305574;22;20019;-94
2022/04/01 17:57:54;;;;;;;19.90;13.73;;;;;;;-0.17;100.00;99374.00;6327857;22;20018;-91
2022/04/01 18:04:41;;;;;;;;;;;;;;;0.11;100.00;99418.53;6324762;22;20030;-93
2022/04/01 18:08:27;;;;;;;19.95;13.93;;;;;;;-0.11;100.00;99383.41;6320452;22;19914;-92
2022/04/01 18:11:27;;;;;;;21.15;12.68;;;;;;;0.11;100.00;99441.94;6322320;22;20145;-94
2022/04/01 18:14:44;;;;;;;17.27;12.97;;;;;;;-0.41;100.00;99354.50;6322470;22;20019;-92
2022/04/01 18:17:34;;;;;;;17.45;13.20;;;;;;;-0.15;100.00;99392.13;6304144;22;20045;-90
2022/04/01 18:20:24;;;;;;;19.70;14.20;;;;;;;-0.27;100.00;99375.03;6280680;22;20034;-94
2022/04/01 18:22:59;;;;;;;18.05;14.07;;;;;;;0.16;100.00;99455.72;6294866;22;20031;-94
2022/04/01 18:25:54;;;;;;;17.05;13.77;;;;;;;-0.10;100.00;99417.19;6300153;22;20069;-94
2022/04/01 18:29:20;;;;;;;17.30;13.63;;;;;;;-0.15;100.00;99421.63;6253015;22;20084;-95
2022/04/01 18:36:46;;;;;;;17.50;12.93;;;;;;;-0.24;100.00;99424.41;6311101;22;20026;-94
2022/04/01 18:39:41;;;;;;;15.52;11.75;;;;;;;0.10;100.00;99479.28;6303087;22;20030;-94
2022/04/01 18:42:27;;;;;;;17.33;11.57;;;;;;;-0.37;100.00;99394.31;6322805;22;20026;-94
2022/04/01 18:45:17;;;;;;;15.60;11.35;;;;;;;-0.05;100.00;99456.16;6299303;22;20012;-89
2022/04/01 19:29:58;;;;;;;17.48;10.57;;;;;;;0.09;100.00;99508.81;6285025;22;20120;-91
2022/04/01 19:39:44;;;;;;;14.77;9.27;;;;;;;-0.25;100.00;99460.84;6315578;22;20027;-91
2022/04/01 19:43:21;;;;;;;16.52;9.05;;;;;;;-0.38;100.00;99442.88;6228298;22;20182;-91
2022/04/01 19:47:01;;;;;;;;;;;;;;;;;;;;;
2022/04/01 19:50:18;;;;;;;13.93;8.75;;;;;;;0.18;100.00;99536.38;6270656;22;20043;-93
2022/04/01 20:05:40;;;;;;;;;;;;;;;;;;;;;
2022/04/01 20:08:29;;;;;;;14.35;9.20;;;;;;;-0.26;100.00;99461.75;6311098;22;20101;-92
2022/04/01 20:11:16;;;;;;;13.73;9.05;;;;;;;-0.25;100.00;99469.53;6332866;22;20098;-90
2022/04/01 20:23:32;;;;;;;12.85;8.70;;;;;;;-0.21;100.00;99470.34;6302504;22;20011;-90
2022/04/01 20:38:19;;;;;;;12.38;9.15;;;;;;;0.17;100.00;99556.34;6271469;22;20020;-91
2022/04/01 20:41:05;;;;;;;11.90;8.90;;;;;;;-0.07;100.00;99520.38;6270777;23;20008;-93
2022/04/01 20:44:08;;;;;;;12.43;8.43;;;;;;;0.19;100.00;99567.59;6265249;23;20110;-93
2022/04/01 21:02:35;;;;;;;12.68;8.63;;;;;;;-0.24;100.00;99502.47;6266049;22;20031;-93
2022/04/01 21:05:49;;;;;;;13.77;8.40;;;;;;;0.21;100.00;99568.44;6298548;22;20023;-92
2022/04/01 21:08:38;;;;;;;15.05;8.23;;;;;;;-0.23;100.00;99506.78;6274272;22;20068;-94
2022/04/01 21:15:03;;;;;;;12.50;7.43;;;;;;;0.22;100.00;99556.28;6334190;22;20012;-92
2022/04/01 21:18:30;;;;;;;11.68;7.38;;;;;;;0.31;100.00;99585.63;6143557;23;20039;-92
2022/04/01 21:21:41;;;;;;;;;;;;;;;;;;;;;
2022/04/01 21:25:16;;;;;;;11.00;7.35;;;;;;;0.27;100.00;99581.38;6318034;22;20030;-91
2022/04/01 21:43:25;;;;;;;;;;;;;;;;;;;;;
2022/04/01 21:46:34;;;;;;;9.70;7.60;;;;;;;-0.19;100.00;99505.00;6258548;22;20102;-96
2022/04/01 21:49:32;;;;;;;13.77;7.75;;;;;;;-0.04;100.00;99547.22;6313529;22;20028;-92
2022/04/01 21:52:40;;;;;;;11.38;7.07;;;;;;;-0.03;100.00;99542.88;6318840;22;20033;-92
2022/04/01 21:55:24;;;;;;;11.38;8.05;;;;;;;-0.13;100.00;99515.28;6321065;22;20030;-93
2022/04/01 21:58:09;;;;;;;10.73;7.57;;;;;;;0.29;100.00;99586.53;6291864;22;20003;-90
2022/04/01 22:01:55;;;;;;;12.93;8.02;;;;;;;-0.21;100.00;99509.34;6327975;22;20023;-92
2022/04/01 22:04:51;;;;;;;12.55;8.23;;;;;;;-0.19;100.00;99495.44;6328001;22;20027;-93
2022/04/01 22:10:51;;;;;;;12.18;7.85;;;;;;;0.05;100.00;99538.38;6317491;22;19999;-92
2022/04/01 22:13:25;;;;;;;13.80;7.72;;;;;;;0.30;100.00;99589.13;6276974;22;20053;-91
2022/04/01 22:16:13;;;;;;;10.70;7.72;;;;;;;0.30;100.00;99578.72;6309614;22;20024;-94
2022/04/01 22:18:56;;;;;;;13.13;8.15;;;;;;;0.24;100.00;99572.75;6318455;22;20030;-94
2022/04/01 22:21:38;;;;;;;9.93;7.72;;;;;;;-0.17;100.00;99504.09;6313760;22;20023;-93
2022/04/01 22:24:58;;;;;;;12.02;7.70;;;;;;;-0.15;100.00;99499.69;6280499;22;20061;-92
2022/04/01 22:27:42;;;;;;;;;;;;;;;0.30;100.00;99583.91;6299011;22;20023;-93
2022/04/01 22:30:21;;;;;;;9.57;7.00;;;;;;;0.25;100.00;99575.31;6318462;22;19918;-93
2022/04/01 22:33:03;;;;;;;12.82;8.38;;;;;;;0.08;100.00;99561.75;6297982;22;20023;-88
2022/04/01 22:36:11;;;;;;;9.93;7.45;;;;;;;0.02;100.00;99545.38;6329158;22;20025;-94
2022/04/01 22:38:57;;;;;;;11.48;7.90;;;;;;;0.30;100.00;99593.47;6300255;22;20047;-94
2022/04/01 22:41:40;;;;;;;9.82;7.28;;;;;;;-0.05;100.00;99522.06;6320209;22;20118;-94
2022/04/01 22:44:29;;;;;;;;;;;;;;;0.31;100.00;99598.66;6307145;22;20019;-94
2022/04/01 22:47:21;;;;;;;11.10;7.85;;;;;;;0.10;100.00;99573.00;6314444;22;19922;-94
2022/04/01 22:50:14;;;;;;;11.23;7.80;;;;;;;-0.22;100.00;99525.84;6314089;22;20041;-93
2022/04/01 22:53:09;;;;;;;10.02;7.90;;;;;;;0.03;100.00;99573.97;6294490;22;20015;-94
2022/04/01 22:56:01;;;;;;;9.30;7.63;;;;;;;0.21;100.00;99609.25;6312474;22;20023;-92
2022/04/01 22:59:37;;;;;;;10.90;7.93;;;;;;;0.14;100.00;99594.63;6316577;22;20078;-92
2022/04/01 23:02:28;;;;;;;16.38;7.65;;;;;;;-0.24;100.00;99525.00;6300732;22;20023;-93
2022/04/01 23:04:56;;;;;;;10.13;7.90;;;;;;;0.03;100.00;99576.56;6319194;22;20413;-93
2022/04/01 23:07:29;;;;;;;11.65;7.90;;;;;;;-0.32;100.00;99526.91;6317041;22;20429;-95
2022/04/01 23:10:15;;;;;;;10.57;8.00;;;;;;;-0.22;100.00;99555.34;6314030;22;20072;-94
2022/04/01 23:13:05;;;;;;;10.90;8.25;;;;;;;0.01;100.00;99596.56;6312425;22;20090;-93
2022/04/01 23:15:46;;;;;;;11.20;8.10;;;;;;;-0.26;100.00;99539.78;6304786;22;20015;-90
2022/04/01 23:18:40;;;;;;;;;;;;;;;0.22;100.00;99619.63;6316521;22;20030;-92
2022/04/01 23:21:45;;;;;;;10.88;8.10;;;;;;;-0.03;100.00;99589.72;6322161;22;19919;-93
2022/04/01 23:24:36;;;;;;;15.73;8.60;;;;;;;0.21;100.00;99619.66;6318959;22;20025;-94
2022/04/01 23:27:29;;;;;;;9.73;7.57;;;;;;;0.19;100.00;99614.47;6319198;22;20022;-93
2022/04/01 23:31:16;;;;;;;;;;;;;;;;;;;;;
2022/04/01 23:34:25;;;;;;;11.57;8.00;;;;;;;-0.07;100.00;99570.69;6317429;22;20018;-96
2022/04/01 23:37:26;;;;;;;;;;;;;;;;;;;;;
2022/04/01 23:40:20;;;;;;;11.23;7.10;;;;;;;0.17;100.00;99613.63;6328308;22;20014;-94
2022/04/01 23:43:38;;;;;;;10.73;6.60;;;;;;;-0.32;100.00;99529.50;6292221;22;20049;-95
